sensor_id;sensor_type;location;lat;lon;timestamp;pressure;altitude;pressure_sealevel;temperature;humidity
35878;BME280;21982;49.804;24.072;2022-12-15T00:00:43;95894.03;;;-1.47;72.49
35878;BME280;21982;49.804;24.072;2022-12-15T00:03:29;95943.78;;;-1.16;72.75
35878;BME280;21982;49.804;24.072;2022-12-15T00:06:13;95953.19;;;-1.32;72.23
35878;BME280;21982;49.804;24.072;2022-12-15T00:08:57;95952.03;;;-1.20;72.79
35878;BME280;21982;49.804;24.072;2022-12-15T00:11:41;95937.56;;;-1.23;72.32
35878;BME280;21982;49.804;24.072;2022-12-15T00:14:25;95852.63;;;-1.66;72.59
35878;BME280;21982;49.804;24.072;2022-12-15T00:17:09;95955.56;;;-1.04;72.58
35878;BME280;21982;49.804;24.072;2022-12-15T00:19:54;95902.84;;;-1.22;72.46
35878;BME280;21982;49.804;24.072;2022-12-15T00:22:38;95920.28;;;-1.14;72.42
35878;BME280;21982;49.804;24.072;2022-12-15T00:25:23;95859.06;;;-1.35;72.50
35878;BME280;21982;49.804;24.072;2022-12-15T00:28:06;95847.28;;;-1.47;72.31
35878;BME280;21982;49.804;24.072;2022-12-15T00:30:50;95765.16;;;-1.91;72.12
35878;BME280;21982;49.804;24.072;2022-12-15T00:33:34;95896.91;;;-1.14;72.08
35878;BME280;21982;49.804;24.072;2022-12-15T00:36:18;95944.28;;;-0.94;72.28
35878;BME280;21982;49.804;24.072;2022-12-15T00:39:02;95945.41;;;-0.97;72.13
35878;BME280;21982;49.804;24.072;2022-12-15T00:41:28;95941.69;;;-0.94;72.40
35878;BME280;21982;49.804;24.072;2022-12-15T00:43:53;95941.38;;;-0.91;72.45
35878;BME280;21982;49.804;24.072;2022-12-15T00:46:19;95935.38;;;-0.92;72.32
35878;BME280;21982;49.804;24.072;2022-12-15T00:49:02;95847.81;;;-1.43;72.32
35878;BME280;21982;49.804;24.072;2022-12-15T00:51:29;95936.88;;;-0.89;71.99
35878;BME280;21982;49.804;24.072;2022-12-15T00:54:13;95926.22;;;-1.04;72.35
35878;BME280;21982;49.804;24.072;2022-12-15T00:56:57;95935.00;;;-0.97;72.32
35878;BME280;21982;49.804;24.072;2022-12-15T00:59:41;95881.03;;;-1.29;72.31
35878;BME280;21982;49.804;24.072;2022-12-15T01:02:25;95920.34;;;-1.06;72.26
35878;BME280;21982;49.804;24.072;2022-12-15T01:05:08;95866.13;;;-1.45;72.42
35878;BME280;21982;49.804;24.072;2022-12-15T01:07:52;95861.25;;;-1.48;72.46
35878;BME280;21982;49.804;24.072;2022-12-15T01:10:37;95945.03;;;-1.02;72.36
35878;BME280;21982;49.804;24.072;2022-12-15T01:13:20;95928.34;;;-1.17;72.41
35878;BME280;21982;49.804;24.072;2022-12-15T01:16:11;95860.41;;;-1.48;72.09
35878;BME280;21982;49.804;24.072;2022-12-15T01:18:55;95929.31;;;-1.18;72.65
35878;BME280;21982;49.804;24.072;2022-12-15T01:21:40;95943.41;;;-1.03;72.85
35878;BME280;21982;49.804;24.072;2022-12-15T01:24:06;95943.41;;;-1.03;72.64
35878;BME280;21982;49.804;24.072;2022-12-15T01:26:31;95944.06;;;-1.01;72.73
35878;BME280;21982;49.804;24.072;2022-12-15T01:28:57;95939.69;;;-1.01;73.00
35878;BME280;21982;49.804;24.072;2022-12-15T01:31:22;95854.72;;;-1.52;72.58
35878;BME280;21982;49.804;24.072;2022-12-15T01:33:47;95927.81;;;-1.03;72.67
35878;BME280;21982;49.804;24.072;2022-12-15T01:36:13;95901.72;;;-1.19;72.79
35878;BME280;21982;49.804;24.072;2022-12-15T01:38:38;95867.31;;;-1.39;72.77
35878;BME280;21982;49.804;24.072;2022-12-15T01:41:05;95941.25;;;-0.90;72.83
35878;BME280;21982;49.804;24.072;2022-12-15T01:43:35;95950.00;;;-0.91;72.75
35878;BME280;21982;49.804;24.072;2022-12-15T01:48:45;95953.94;;;-0.87;72.49
35878;BME280;21982;49.804;24.072;2022-12-15T01:51:24;95958.47;;;-0.89;72.94
35878;BME280;21982;49.804;24.072;2022-12-15T01:54:07;95949.03;;;-0.90;72.94
35878;BME280;21982;49.804;24.072;2022-12-15T01:56:37;95948.75;;;-0.87;72.77
35878;BME280;21982;49.804;24.072;2022-12-15T01:59:07;95948.75;;;-0.87;72.92
35878;BME280;21982;49.804;24.072;2022-12-15T02:01:33;95959.44;;;-0.90;73.12
35878;BME280;21982;49.804;24.072;2022-12-15T02:03:59;95845.22;;;-1.61;72.87
35878;BME280;21982;49.804;24.072;2022-12-15T02:06:25;95961.59;;;-0.85;72.96
35878;BME280;21982;49.804;24.072;2022-12-15T02:08:54;95935.00;;;-0.97;73.13
35878;BME280;21982;49.804;24.072;2022-12-15T02:14:24;95974.50;;;-0.76;72.75
35878;BME280;21982;49.804;24.072;2022-12-15T02:28:45;95967.69;;;-0.69;73.11
35878;BME280;21982;49.804;24.072;2022-12-15T02:31:20;95962.50;;;-0.69;73.13
35878;BME280;21982;49.804;24.072;2022-12-15T02:34:38;95932.25;;;-0.95;73.05
35878;BME280;21982;49.804;24.072;2022-12-15T02:37:11;95977.47;;;-0.71;73.31
35878;BME280;21982;49.804;24.072;2022-12-15T02:39:38;95912.47;;;-1.14;73.13
35878;BME280;21982;49.804;24.072;2022-12-15T02:42:04;95964.56;;;-0.80;73.06
35878;BME280;21982;49.804;24.072;2022-12-15T02:44:49;95977.50;;;-0.62;72.57
35878;BME280;21982;49.804;24.072;2022-12-15T02:52:56;95967.84;;;-0.52;72.84
35878;BME280;21982;49.804;24.072;2022-12-15T02:58:32;95978.22;;;-0.52;73.08
35878;BME280;21982;49.804;24.072;2022-12-15T03:01:06;95944.31;;;-0.69;72.87
35878;BME280;21982;49.804;24.072;2022-12-15T03:03:33;95876.63;;;-1.11;73.02
35878;BME280;21982;49.804;24.072;2022-12-15T03:05:59;95959.88;;;-0.51;73.14
35878;BME280;21982;49.804;24.072;2022-12-15T03:08:27;95962.03;;;-0.46;73.14
35878;BME280;21982;49.804;24.072;2022-12-15T03:10:55;95930.72;;;-0.62;73.22
35878;BME280;21982;49.804;24.072;2022-12-15T03:13:22;95972.13;;;-0.43;73.40
35878;BME280;21982;49.804;24.072;2022-12-15T03:15:48;95977.03;;;-0.40;72.99
35878;BME280;21982;49.804;24.072;2022-12-15T03:18:16;95973.47;;;-0.39;73.03
35878;BME280;21982;49.804;24.072;2022-12-15T03:20:42;95948.38;;;-0.48;73.11
35878;BME280;21982;49.804;24.072;2022-12-15T03:23:08;95927.16;;;-0.61;73.18
35878;BME280;21982;49.804;24.072;2022-12-15T07:01:54;96282.63;;;-1.01;75.97
35878;BME280;21982;49.804;24.072;2022-12-15T07:04:19;96263.47;;;-0.62;76.06
35878;BME280;21982;49.804;24.072;2022-12-15T07:06:44;96300.16;;;-0.11;76.54
35878;BME280;21982;49.804;24.072;2022-12-15T07:09:13;96163.72;;;-0.61;76.32
35878;BME280;21982;49.804;24.072;2022-12-15T07:11:42;96304.09;;;0.47;76.44
35878;BME280;21982;49.804;24.072;2022-12-15T07:14:08;96248.53;;;0.38;76.27
35878;BME280;21982;49.804;24.072;2022-12-15T07:16:34;96302.13;;;0.84;76.11
35878;BME280;21982;49.804;24.072;2022-12-15T07:18:59;96299.78;;;0.99;76.42
35878;BME280;21982;49.804;24.072;2022-12-15T07:21:24;96262.88;;;0.86;76.55
35878;BME280;21982;49.804;24.072;2022-12-15T07:23:50;96299.09;;;1.23;76.51
35878;BME280;21982;49.804;24.072;2022-12-15T07:26:15;96307.50;;;1.34;76.40
35878;BME280;21982;49.804;24.072;2022-12-15T07:28:41;96165.31;;;0.54;76.32
35878;BME280;21982;49.804;24.072;2022-12-15T07:31:08;96308.38;;;1.51;75.67
35878;BME280;21982;49.804;24.072;2022-12-15T07:33:35;96316.25;;;1.59;76.12
35878;BME280;21982;49.804;24.072;2022-12-15T07:36:01;96315.97;;;1.71;75.71
35878;BME280;21982;49.804;24.072;2022-12-15T07:38:27;96320.22;;;1.80;75.86
35878;BME280;21982;49.804;24.072;2022-12-15T07:40:54;96325.47;;;1.88;75.65
35878;BME280;21982;49.804;24.072;2022-12-15T07:43:20;96290.34;;;1.74;75.19
35878;BME280;21982;49.804;24.072;2022-12-15T07:45:53;96326.69;;;2.10;75.40
35878;BME280;21982;49.804;24.072;2022-12-15T07:48:19;96337.16;;;2.18;75.63
35878;BME280;21982;49.804;24.072;2022-12-15T07:50:46;96298.13;;;2.00;75.39
35878;BME280;21982;49.804;24.072;2022-12-15T07:53:12;96324.91;;;2.18;74.67
35878;BME280;21982;49.804;24.072;2022-12-15T07:55:38;96342.44;;;2.34;74.65
35878;BME280;21982;49.804;24.072;2022-12-15T07:58:04;96257.09;;;1.76;74.75
35878;BME280;21982;49.804;24.072;2022-12-15T08:00:31;96317.06;;;2.10;75.26
35878;BME280;21982;49.804;24.072;2022-12-15T08:03:00;96274.94;;;1.97;74.89
35878;BME280;21982;49.804;24.072;2022-12-15T08:05:26;96289.66;;;2.06;74.89
35878;BME280;21982;49.804;24.072;2022-12-15T08:07:57;96351.41;;;2.48;74.82
35878;BME280;21982;49.804;24.072;2022-12-15T08:10:22;96363.66;;;2.47;74.88
35878;BME280;21982;49.804;24.072;2022-12-15T08:12:51;96366.44;;;2.54;74.52
35878;BME280;21982;49.804;24.072;2022-12-15T08:15:17;96335.72;;;2.31;74.24
35878;BME280;21982;49.804;24.072;2022-12-15T08:17:43;96363.81;;;2.46;74.33
35878;BME280;21982;49.804;24.072;2022-12-15T08:20:10;96340.81;;;2.41;73.73
35878;BME280;21982;49.804;24.072;2022-12-15T08:22:35;96378.72;;;2.61;73.73
35878;BME280;21982;49.804;24.072;2022-12-15T08:25:00;96313.66;;;2.18;73.71
35878;BME280;21982;49.804;24.072;2022-12-15T08:27:26;96398.19;;;2.67;73.95
35878;BME280;21982;49.804;24.072;2022-12-15T08:29:51;96401.94;;;2.73;73.88
35878;BME280;21982;49.804;24.072;2022-12-15T08:32:19;96408.78;;;2.82;74.04
35878;BME280;21982;49.804;24.072;2022-12-15T08:34:45;96368.59;;;2.58;73.97
35878;BME280;21982;49.804;24.072;2022-12-15T08:37:13;96403.59;;;2.90;73.43
35878;BME280;21982;49.804;24.072;2022-12-15T08:39:39;96307.47;;;2.27;73.51
35878;BME280;21982;49.804;24.072;2022-12-15T08:42:07;96359.94;;;2.58;73.69
35878;BME280;21982;49.804;24.072;2022-12-15T08:44:33;96412.09;;;2.92;73.50
35878;BME280;21982;49.804;24.072;2022-12-15T08:46:58;96409.00;;;2.96;72.97
35878;BME280;21982;49.804;24.072;2022-12-15T08:49:26;96409.81;;;2.97;73.74
35878;BME280;21982;49.804;24.072;2022-12-15T08:51:51;96417.31;;;3.00;73.01
35878;BME280;21982;49.804;24.072;2022-12-15T08:54:17;96418.31;;;2.99;73.60
35878;BME280;21982;49.804;24.072;2022-12-15T08:56:44;96416.63;;;2.82;72.76
35878;BME280;21982;49.804;24.072;2022-12-15T08:59:10;96404.88;;;2.78;73.80
35878;BME280;21982;49.804;24.072;2022-12-15T09:01:36;96431.03;;;2.94;73.30
35878;BME280;21982;49.804;24.072;2022-12-15T09:04:04;96344.41;;;2.40;73.32
35878;BME280;21982;49.804;24.072;2022-12-15T09:06:33;96379.38;;;2.55;73.44
35878;BME280;21982;49.804;24.072;2022-12-15T09:09:02;96451.47;;;2.98;73.47
35878;BME280;21982;49.804;24.072;2022-12-15T09:11:29;96437.25;;;2.93;73.06
35878;BME280;21982;49.804;24.072;2022-12-15T09:13:54;96451.97;;;2.94;73.31
35878;BME280;21982;49.804;24.072;2022-12-15T09:16:22;96363.50;;;2.41;73.49
35878;BME280;21982;49.804;24.072;2022-12-15T09:18:50;96417.47;;;2.82;73.67
35878;BME280;21982;49.804;24.072;2022-12-15T09:21:17;96348.81;;;2.48;73.20
35878;BME280;21982;49.804;24.072;2022-12-15T09:23:48;96464.09;;;3.11;72.86
35878;BME280;21982;49.804;24.072;2022-12-15T09:26:17;96463.75;;;3.06;72.77
35878;BME280;21982;49.804;24.072;2022-12-15T09:28:43;96465.06;;;3.02;72.75
35878;BME280;21982;49.804;24.072;2022-12-15T09:31:22;96426.06;;;2.50;72.66
35878;BME280;21982;49.804;24.072;2022-12-15T09:33:50;96324.66;;;1.87;73.12
35878;BME280;21982;49.804;24.072;2022-12-15T09:36:16;96424.94;;;2.61;73.28
35878;BME280;21982;49.804;24.072;2022-12-15T09:38:42;96392.59;;;2.54;72.87
35878;BME280;21982;49.804;24.072;2022-12-15T09:41:19;96418.59;;;2.72;72.43
35878;BME280;21982;49.804;24.072;2022-12-15T09:43:51;96484.38;;;3.09;72.46
35878;BME280;21982;49.804;24.072;2022-12-15T09:52:29;96475.53;;;3.02;73.19
35878;BME280;21982;49.804;24.072;2022-12-15T09:54:57;96482.72;;;3.00;72.96
35878;BME280;21982;49.804;24.072;2022-12-15T10:00:10;96481.25;;;3.06;72.96
35878;BME280;21982;49.804;24.072;2022-12-15T10:05:35;96481.75;;;3.09;72.59
35878;BME280;21982;49.804;24.072;2022-12-15T10:08:02;96487.63;;;3.03;72.73
35878;BME280;21982;49.804;24.072;2022-12-15T10:10:54;96489.91;;;2.98;71.79
35878;BME280;21982;49.804;24.072;2022-12-15T10:13:36;96498.53;;;2.90;72.24
35878;BME280;21982;49.804;24.072;2022-12-15T10:16:14;96434.22;;;2.47;73.08
35878;BME280;21982;49.804;24.072;2022-12-15T10:18:52;96385.97;;;2.17;72.25
35878;BME280;21982;49.804;24.072;2022-12-15T10:21:25;96450.91;;;2.54;73.12
35878;BME280;21982;49.804;24.072;2022-12-15T10:23:53;96476.13;;;2.72;72.56
35878;BME280;21982;49.804;24.072;2022-12-15T10:26:29;96429.97;;;2.46;72.77
35878;BME280;21982;49.804;24.072;2022-12-15T10:29:21;96516.38;;;2.95;72.47
35878;BME280;21982;49.804;24.072;2022-12-15T10:32:04;96516.22;;;2.96;72.67
35878;BME280;21982;49.804;24.072;2022-12-15T10:34:36;96517.34;;;2.94;73.07
35878;BME280;21982;49.804;24.072;2022-12-15T10:37:12;96497.03;;;2.72;72.48
35878;BME280;21982;49.804;24.072;2022-12-15T10:39:42;96495.88;;;2.82;72.77
35878;BME280;21982;49.804;24.072;2022-12-15T10:42:17;96533.38;;;2.99;72.25
35878;BME280;21982;49.804;24.072;2022-12-15T10:44:56;96533.50;;;2.89;72.44
35878;BME280;21982;49.804;24.072;2022-12-15T10:47:28;96498.94;;;2.61;72.81
35878;BME280;21982;49.804;24.072;2022-12-15T10:50:17;96546.72;;;2.88;73.07
35878;BME280;21982;49.804;24.072;2022-12-15T10:52:45;96526.13;;;2.77;72.39
35878;BME280;21982;49.804;24.072;2022-12-15T10:55:38;96511.84;;;2.63;72.54
35878;BME280;21982;49.804;24.072;2022-12-15T10:58:24;96549.50;;;2.86;72.13
35878;BME280;21982;49.804;24.072;2022-12-15T11:01:06;96528.09;;;2.75;72.66
35878;BME280;21982;49.804;24.072;2022-12-15T11:03:35;96522.50;;;2.69;72.51
35878;BME280;21982;49.804;24.072;2022-12-15T11:06:11;96552.63;;;2.90;73.13
35878;BME280;21982;49.804;24.072;2022-12-15T11:08:40;96485.53;;;2.56;72.51
35878;BME280;21982;49.804;24.072;2022-12-15T11:11:30;96536.75;;;2.83;72.09
35878;BME280;21982;49.804;24.072;2022-12-15T11:14:21;96564.75;;;2.99;72.67
35878;BME280;21982;49.804;24.072;2022-12-15T11:16:52;96536.09;;;2.81;72.28
35878;BME280;21982;49.804;24.072;2022-12-15T11:19:29;96550.88;;;3.07;72.19
35878;BME280;21982;49.804;24.072;2022-12-15T11:22:08;96556.94;;;3.07;72.48
35878;BME280;21982;49.804;24.072;2022-12-15T11:24:52;96555.31;;;3.06;71.94
35878;BME280;21982;49.804;24.072;2022-12-15T11:27:35;96566.25;;;3.10;72.17
35878;BME280;21982;49.804;24.072;2022-12-15T11:30:12;96403.06;;;2.12;71.92
35878;BME280;21982;49.804;24.072;2022-12-15T11:32:42;96440.69;;;2.27;71.91
35878;BME280;21982;49.804;24.072;2022-12-15T11:35:14;96562.50;;;3.20;71.86
35878;BME280;21982;49.804;24.072;2022-12-15T11:37:42;96465.88;;;2.44;71.93
35878;BME280;21982;49.804;24.072;2022-12-15T11:42:54;96585.06;;;3.21;71.69
35878;BME280;21982;49.804;24.072;2022-12-15T11:45:40;96585.25;;;3.12;71.72
35878;BME280;21982;49.804;24.072;2022-12-15T11:49:00;96589.47;;;3.05;72.36
35878;BME280;21982;49.804;24.072;2022-12-15T11:51:10;96585.69;;;2.99;71.30
35878;BME280;21982;49.804;24.072;2022-12-15T11:56:30;96590.31;;;2.79;71.29
35878;BME280;21982;49.804;24.072;2022-12-15T12:01:47;96607.47;;;2.74;72.66
35878;BME280;21982;49.804;24.072;2022-12-15T12:17:52;96586.66;;;2.98;71.71
35878;BME280;21982;49.804;24.072;2022-12-15T12:20:22;96504.44;;;2.42;70.90
35878;BME280;21982;49.804;24.072;2022-12-15T12:23:04;96600.91;;;3.03;70.77
35878;BME280;21982;49.804;24.072;2022-12-15T12:25:57;96480.94;;;2.16;70.83
35878;BME280;21982;49.804;24.072;2022-12-15T12:28:45;96622.28;;;2.99;70.58
35878;BME280;21982;49.804;24.072;2022-12-15T12:31:47;96616.81;;;2.84;71.53
35878;BME280;21982;49.804;24.072;2022-12-15T12:34:23;96587.19;;;2.67;70.67
35878;BME280;21982;49.804;24.072;2022-12-15T12:36:51;96634.66;;;2.89;71.27
35878;BME280;21982;49.804;24.072;2022-12-15T12:39:23;96641.22;;;2.93;71.06
35878;BME280;21982;49.804;24.072;2022-12-15T12:42:08;96641.53;;;2.90;70.69
35878;BME280;21982;49.804;24.072;2022-12-15T12:44:37;96539.38;;;2.15;71.16
35878;BME280;21982;49.804;24.072;2022-12-15T12:47:16;96644.75;;;2.84;71.37
35878;BME280;21982;49.804;24.072;2022-12-15T12:49:47;96636.53;;;2.71;70.88
35878;BME280;21982;49.804;24.072;2022-12-15T12:52:24;96619.19;;;2.61;71.23
35878;BME280;21982;49.804;24.072;2022-12-15T12:57:45;96680.75;;;2.90;71.27
35878;BME280;21982;49.804;24.072;2022-12-15T13:00:17;96649.31;;;2.74;71.28
35878;BME280;21982;49.804;24.072;2022-12-15T13:03:08;96657.69;;;2.85;70.61
35878;BME280;21982;49.804;24.072;2022-12-15T13:05:40;96670.66;;;2.95;70.86
35878;BME280;21982;49.804;24.072;2022-12-15T13:10:42;96677.88;;;3.01;70.21
35878;BME280;21982;49.804;24.072;2022-12-15T13:16:01;96658.09;;;2.98;70.91
35878;BME280;21982;49.804;24.072;2022-12-15T13:19:02;96686.91;;;3.07;70.34
35878;BME280;21982;49.804;24.072;2022-12-15T13:30:01;96704.28;;;2.90;70.65
35878;BME280;21982;49.804;24.072;2022-12-15T13:32:38;96663.53;;;2.53;70.40
35878;BME280;21982;49.804;24.072;2022-12-15T13:35:20;96703.25;;;2.83;71.00
35878;BME280;21982;49.804;24.072;2022-12-15T13:37:50;96673.03;;;2.54;71.24
35878;BME280;21982;49.804;24.072;2022-12-15T13:42:59;96651.06;;;2.39;70.94
35878;BME280;21982;49.804;24.072;2022-12-15T13:45:40;96710.19;;;2.92;71.60
35878;BME280;21982;49.804;24.072;2022-12-15T13:48:21;96707.31;;;3.03;70.91
35878;BME280;21982;49.804;24.072;2022-12-15T13:53:24;96612.19;;;2.44;70.98
35878;BME280;21982;49.804;24.072;2022-12-15T13:58:43;96607.88;;;2.27;70.13
35878;BME280;21982;49.804;24.072;2022-12-15T14:01:19;96565.56;;;1.97;70.65
35878;BME280;21982;49.804;24.072;2022-12-15T14:03:55;96723.03;;;2.77;70.60
35878;BME280;21982;49.804;24.072;2022-12-15T14:06:21;96716.34;;;2.83;71.33
35878;BME280;21982;49.804;24.072;2022-12-15T14:08:48;96659.97;;;2.54;71.04
35878;BME280;21982;49.804;24.072;2022-12-15T14:11:21;96625.38;;;2.34;69.95
35878;BME280;21982;49.804;24.072;2022-12-15T14:13:48;96735.47;;;3.09;71.08
35878;BME280;21982;49.804;24.072;2022-12-15T14:16:19;96726.66;;;3.18;70.05
35878;BME280;21982;49.804;24.072;2022-12-15T14:21:33;96580.16;;;2.34;70.66
35878;BME280;21982;49.804;24.072;2022-12-15T14:23:58;96669.06;;;3.02;70.30
35878;BME280;21982;49.804;24.072;2022-12-15T14:26:26;96718.91;;;3.34;70.01
35878;BME280;21982;49.804;24.072;2022-12-15T14:29:00;96720.53;;;3.35;69.29
35878;BME280;21982;49.804;24.072;2022-12-15T14:31:26;96706.03;;;3.15;69.96
35878;BME280;21982;49.804;24.072;2022-12-15T14:36:42;96597.16;;;2.38;70.26
35878;BME280;21982;49.804;24.072;2022-12-15T14:41:46;96346.97;;;0.52;69.87
35878;BME280;21982;49.804;24.072;2022-12-15T14:44:27;96722.72;;;3.14;70.32
35878;BME280;21982;49.804;24.072;2022-12-15T14:46:54;96753.84;;;3.25;70.64
35878;BME280;21982;49.804;24.072;2022-12-15T14:49:24;96769.56;;;3.25;70.23
35878;BME280;21982;49.804;24.072;2022-12-15T14:51:56;96759.75;;;3.27;70.12
35878;BME280;21982;49.804;24.072;2022-12-15T14:57:14;96621.00;;;2.43;70.18
35878;BME280;21982;49.804;24.072;2022-12-15T14:59:43;96768.94;;;3.31;69.51
35878;BME280;21982;49.804;24.072;2022-12-15T15:02:12;96757.81;;;3.29;70.43
35878;BME280;21982;49.804;24.072;2022-12-15T15:04:38;96734.56;;;3.26;69.69
35878;BME280;21982;49.804;24.072;2022-12-15T15:07:13;96631.34;;;2.79;69.98
35878;BME280;21982;49.804;24.072;2022-12-15T20:15:53;96893.53;;;-0.83;75.63
35878;BME280;21982;49.804;24.072;2022-12-15T20:18:18;96952.09;;;-0.07;76.07
35878;BME280;21982;49.804;24.072;2022-12-15T20:20:45;96899.78;;;-0.04;75.96
35878;BME280;21982;49.804;24.072;2022-12-15T20:23:15;96945.97;;;0.54;76.27
35878;BME280;21982;49.804;24.072;2022-12-15T20:25:41;96878.19;;;0.25;76.28
35878;BME280;21982;49.804;24.072;2022-12-15T22:32:57;96926.50;;;1.06;76.49
